sensor_id;sensor_type;location;lat;lon;timestamp;P1;durP1;ratioP1;P2;durP2;ratioP2
2538;SDS011;1280;49.760;9.664;2023-02-15T11:22:50;51.92;;;25.85;;
2538;SDS011;1280;49.760;9.664;2023-02-15T11:25:20;126.60;;;56.67;;
2538;SDS011;1280;49.760;9.664;2023-02-15T11:27:52;59.15;;;30.60;;
2538;SDS011;1280;49.760;9.664;2023-02-15T11:30:22;55.78;;;27.15;;
2538;SDS011;1280;49.760;9.664;2023-02-15T11:32:51;49.38;;;27.00;;
2538;SDS011;1280;49.760;9.664;2023-02-15T11:35:24;58.45;;;30.00;;
2538;SDS011;1280;49.760;9.664;2023-02-15T11:38:05;59.45;;;32.03;;
2538;SDS011;1280;49.760;9.664;2023-02-15T11:45:04;65.30;;;41.45;;
2538;SDS011;1280;49.760;9.664;2023-02-15T11:47:46;49.08;;;29.30;;
2538;SDS011;1280;49.760;9.664;2023-02-15T11:50:20;47.92;;;27.10;;
2538;SDS011;1280;49.760;9.664;2023-02-15T11:53:01;46.95;;;26.33;;
2538;SDS011;1280;49.760;9.664;2023-02-15T11:55:32;60.40;;;33.50;;
2538;SDS011;1280;49.760;9.664;2023-02-15T11:58:03;50.85;;;26.98;;
2538;SDS011;1280;49.760;9.664;2023-02-15T12:00:39;43.97;;;24.45;;
2538;SDS011;1280;49.760;9.664;2023-02-15T12:03:14;48.47;;;27.20;;
2538;SDS011;1280;49.760;9.664;2023-02-15T12:06:01;50.33;;;29.38;;
2538;SDS011;1280;49.760;9.664;2023-02-15T12:08:34;46.15;;;26.67;;
2538;SDS011;1280;49.760;9.664;2023-02-15T12:11:06;43.55;;;25.15;;
2538;SDS011;1280;49.760;9.664;2023-02-15T12:13:53;41.50;;;25.60;;
2538;SDS011;1280;49.760;9.664;2023-02-15T12:16:28;44.30;;;26.42;;
2538;SDS011;1280;49.760;9.664;2023-02-15T12:19:00;43.63;;;24.08;;
2538;SDS011;1280;49.760;9.664;2023-02-15T12:21:29;43.55;;;24.17;;
2538;SDS011;1280;49.760;9.664;2023-02-15T12:24:14;54.88;;;28.00;;
2538;SDS011;1280;49.760;9.664;2023-02-15T12:26:55;51.47;;;28.00;;
2538;SDS011;1280;49.760;9.664;2023-02-15T12:29:39;59.88;;;32.58;;
2538;SDS011;1280;49.760;9.664;2023-02-15T12:32:16;48.13;;;27.00;;
2538;SDS011;1280;49.760;9.664;2023-02-15T12:34:46;51.00;;;27.17;;
2538;SDS011;1280;49.760;9.664;2023-02-15T12:37:27;51.00;;;27.38;;
2538;SDS011;1280;49.760;9.664;2023-02-15T12:40:01;51.38;;;28.38;;
2538;SDS011;1280;49.760;9.664;2023-02-15T12:42:50;48.33;;;27.10;;
2538;SDS011;1280;49.760;9.664;2023-02-15T12:45:29;47.50;;;25.75;;
2538;SDS011;1280;49.760;9.664;2023-02-15T12:48:13;45.20;;;25.73;;
2538;SDS011;1280;49.760;9.664;2023-02-15T12:50:44;56.50;;;31.83;;
2538;SDS011;1280;49.760;9.664;2023-02-15T12:53:21;52.20;;;29.85;;
2538;SDS011;1280;49.760;9.664;2023-02-15T12:56:00;58.80;;;31.27;;
2538;SDS011;1280;49.760;9.664;2023-02-15T12:58:31;47.97;;;29.00;;
2538;SDS011;1280;49.760;9.664;2023-02-15T13:01:15;49.50;;;27.73;;
2538;SDS011;1280;49.760;9.664;2023-02-15T13:03:55;47.45;;;26.48;;
2538;SDS011;1280;49.760;9.664;2023-02-15T13:06:29;41.63;;;24.05;;
2538;SDS011;1280;49.760;9.664;2023-02-15T13:09:20;42.92;;;24.98;;
2538;SDS011;1280;49.760;9.664;2023-02-15T13:12:08;43.55;;;24.75;;
2538;SDS011;1280;49.760;9.664;2023-02-15T13:14:50;45.72;;;24.92;;
2538;SDS011;1280;49.760;9.664;2023-02-15T13:17:35;43.67;;;24.15;;
2538;SDS011;1280;49.760;9.664;2023-02-15T13:20:10;41.97;;;23.90;;
2538;SDS011;1280;49.760;9.664;2023-02-15T13:38:18;45.72;;;28.27;;
2538;SDS011;1280;49.760;9.664;2023-02-15T13:40:55;47.75;;;26.58;;
2538;SDS011;1280;49.760;9.664;2023-02-15T13:43:39;47.78;;;29.52;;
2538;SDS011;1280;49.760;9.664;2023-02-15T13:46:17;47.85;;;28.42;;
2538;SDS011;1280;49.760;9.664;2023-02-15T13:48:53;55.45;;;29.95;;
2538;SDS011;1280;49.760;9.664;2023-02-15T13:51:35;51.55;;;27.67;;
2538;SDS011;1280;49.760;9.664;2023-02-15T13:57:31;59.35;;;29.00;;
2538;SDS011;1280;49.760;9.664;2023-02-15T14:00:22;52.53;;;27.95;;
2538;SDS011;1280;49.760;9.664;2023-02-15T14:06:01;56.35;;;28.70;;
2538;SDS011;1280;49.760;9.664;2023-02-15T14:11:25;79.53;;;34.30;;
2538;SDS011;1280;49.760;9.664;2023-02-15T14:16:53;62.17;;;32.45;;
2538;SDS011;1280;49.760;9.664;2023-02-15T14:19:34;58.58;;;31.85;;
2538;SDS011;1280;49.760;9.664;2023-02-15T14:22:09;65.10;;;34.42;;
2538;SDS011;1280;49.760;9.664;2023-02-15T14:24:46;54.17;;;29.58;;
2538;SDS011;1280;49.760;9.664;2023-02-15T14:27:26;58.67;;;32.28;;
2538;SDS011;1280;49.760;9.664;2023-02-15T14:30:03;58.35;;;30.38;;
2538;SDS011;1280;49.760;9.664;2023-02-15T14:32:41;52.05;;;28.13;;
2538;SDS011;1280;49.760;9.664;2023-02-15T14:35:13;51.22;;;27.77;;
2538;SDS011;1280;49.760;9.664;2023-02-15T14:37:44;53.80;;;30.90;;
2538;SDS011;1280;49.760;9.664;2023-02-15T14:40:19;58.70;;;32.00;;
2538;SDS011;1280;49.760;9.664;2023-02-15T14:43:34;69.15;;;28.88;;
2538;SDS011;1280;49.760;9.664;2023-02-15T14:46:16;53.53;;;28.67;;
2538;SDS011;1280;49.760;9.664;2023-02-15T14:48:50;45.42;;;27.10;;
2538;SDS011;1280;49.760;9.664;2023-02-15T14:57:31;44.50;;;24.55;;
2538;SDS011;1280;49.760;9.664;2023-02-15T15:03:23;44.97;;;24.90;;
2538;SDS011;1280;49.760;9.664;2023-02-15T15:05:54;51.05;;;29.40;;
2538;SDS011;1280;49.760;9.664;2023-02-15T15:08:29;55.95;;;30.08;;
2538;SDS011;1280;49.760;9.664;2023-02-15T15:17:09;46.72;;;27.92;;
2538;SDS011;1280;49.760;9.664;2023-02-15T15:22:40;50.53;;;30.05;;
2538;SDS011;1280;49.760;9.664;2023-02-15T15:28:09;47.97;;;26.13;;
2538;SDS011;1280;49.760;9.664;2023-02-15T15:31:01;51.72;;;28.35;;
2538;SDS011;1280;49.760;9.664;2023-02-15T15:33:50;51.75;;;28.38;;
2538;SDS011;1280;49.760;9.664;2023-02-15T15:39:42;50.95;;;27.63;;
2538;SDS011;1280;49.760;9.664;2023-02-15T15:42:55;51.08;;;29.63;;
2538;SDS011;1280;49.760;9.664;2023-02-15T15:48:53;57.50;;;31.90;;
2538;SDS011;1280;49.760;9.664;2023-02-15T15:51:23;59.63;;;31.60;;
2538;SDS011;1280;49.760;9.664;2023-02-15T15:53:56;51.67;;;29.70;;
2538;SDS011;1280;49.760;9.664;2023-02-15T15:56:25;55.88;;;31.73;;
2538;SDS011;1280;49.760;9.664;2023-02-15T15:58:58;56.50;;;30.80;;
2538;SDS011;1280;49.760;9.664;2023-02-15T16:01:34;46.42;;;26.85;;
2538;SDS011;1280;49.760;9.664;2023-02-15T16:04:04;44.47;;;25.73;;
2538;SDS011;1280;49.760;9.664;2023-02-15T16:06:33;48.55;;;27.92;;
2538;SDS011;1280;49.760;9.664;2023-02-15T16:09:13;64.90;;;34.17;;
2538;SDS011;1280;49.760;9.664;2023-02-15T16:11:45;79.07;;;36.90;;
2538;SDS011;1280;49.760;9.664;2023-02-15T16:14:15;61.83;;;32.70;;
2538;SDS011;1280;49.760;9.664;2023-02-15T16:16:51;96.28;;;38.90;;
2538;SDS011;1280;49.760;9.664;2023-02-15T16:19:22;112.45;;;41.40;;
2538;SDS011;1280;49.760;9.664;2023-02-15T16:22:00;66.53;;;32.17;;
2538;SDS011;1280;49.760;9.664;2023-02-15T16:30:21;83.70;;;42.70;;
2538;SDS011;1280;49.760;9.664;2023-02-15T16:32:54;68.38;;;33.05;;
2538;SDS011;1280;49.760;9.664;2023-02-15T16:35:30;133.02;;;43.60;;
2538;SDS011;1280;49.760;9.664;2023-02-15T16:38:01;103.80;;;44.80;;
2538;SDS011;1280;49.760;9.664;2023-02-15T16:40:36;70.85;;;38.17;;
2538;SDS011;1280;49.760;9.664;2023-02-15T16:43:11;69.78;;;37.45;;
2538;SDS011;1280;49.760;9.664;2023-02-15T16:45:45;59.45;;;34.00;;
2538;SDS011;1280;49.760;9.664;2023-02-15T16:48:16;67.72;;;41.08;;
2538;SDS011;1280;49.760;9.664;2023-02-15T16:50:51;58.30;;;39.38;;
2538;SDS011;1280;49.760;9.664;2023-02-15T16:53:22;60.35;;;33.20;;
2538;SDS011;1280;49.760;9.664;2023-02-15T16:55:52;59.47;;;34.20;;
2538;SDS011;1280;49.760;9.664;2023-02-15T16:58:26;60.33;;;34.75;;
2538;SDS011;1280;49.760;9.664;2023-02-15T17:00:58;55.80;;;29.92;;
2538;SDS011;1280;49.760;9.664;2023-02-15T17:03:29;49.88;;;28.02;;
2538;SDS011;1280;49.760;9.664;2023-02-15T17:05:57;52.38;;;29.35;;
2538;SDS011;1280;49.760;9.664;2023-02-15T17:08:29;53.75;;;28.55;;
2538;SDS011;1280;49.760;9.664;2023-02-15T17:11:11;61.40;;;32.30;;
2538;SDS011;1280;49.760;9.664;2023-02-15T17:16:58;56.40;;;30.58;;
2538;SDS011;1280;49.760;9.664;2023-02-15T17:19:42;57.00;;;32.92;;
2538;SDS011;1280;49.760;9.664;2023-02-15T17:22:16;63.15;;;34.47;;
2538;SDS011;1280;49.760;9.664;2023-02-15T17:24:47;60.63;;;33.15;;
2538;SDS011;1280;49.760;9.664;2023-02-15T17:27:18;61.10;;;34.08;;
2538;SDS011;1280;49.760;9.664;2023-02-15T17:29:50;61.22;;;36.85;;
2538;SDS011;1280;49.760;9.664;2023-02-15T17:32:20;67.13;;;36.38;;
2538;SDS011;1280;49.760;9.664;2023-02-15T17:34:59;59.92;;;32.20;;
2538;SDS011;1280;49.760;9.664;2023-02-15T17:37:45;78.63;;;38.67;;
2538;SDS011;1280;49.760;9.664;2023-02-15T17:40:17;68.38;;;32.55;;
2538;SDS011;1280;49.760;9.664;2023-02-15T17:42:48;61.22;;;30.77;;
2538;SDS011;1280;49.760;9.664;2023-02-15T17:45:16;53.53;;;28.25;;
2538;SDS011;1280;49.760;9.664;2023-02-15T17:47:44;53.22;;;29.08;;
2538;SDS011;1280;49.760;9.664;2023-02-15T17:50:17;60.05;;;29.27;;
2538;SDS011;1280;49.760;9.664;2023-02-15T17:52:47;66.35;;;33.78;;
2538;SDS011;1280;49.760;9.664;2023-02-15T17:55:18;60.97;;;33.55;;
2538;SDS011;1280;49.760;9.664;2023-02-15T17:58:04;79.60;;;39.17;;
2538;SDS011;1280;49.760;9.664;2023-02-15T18:00:35;76.82;;;37.13;;
2538;SDS011;1280;49.760;9.664;2023-02-15T18:03:23;73.88;;;38.55;;
2538;SDS011;1280;49.760;9.664;2023-02-15T18:06:14;61.53;;;32.85;;
2538;SDS011;1280;49.760;9.664;2023-02-15T18:09:00;58.30;;;33.25;;
2538;SDS011;1280;49.760;9.664;2023-02-15T18:11:46;68.35;;;33.88;;
2538;SDS011;1280;49.760;9.664;2023-02-15T18:14:15;56.30;;;31.58;;
2538;SDS011;1280;49.760;9.664;2023-02-15T18:16:43;64.07;;;34.90;;
2538;SDS011;1280;49.760;9.664;2023-02-15T18:19:13;67.10;;;34.60;;
2538;SDS011;1280;49.760;9.664;2023-02-15T18:21:45;81.10;;;37.17;;
2538;SDS011;1280;49.760;9.664;2023-02-15T18:24:14;71.35;;;32.53;;
2538;SDS011;1280;49.760;9.664;2023-02-15T18:26:44;64.72;;;32.17;;
2538;SDS011;1280;49.760;9.664;2023-02-15T18:29:13;73.65;;;37.22;;
2538;SDS011;1280;49.760;9.664;2023-02-15T18:31:41;82.88;;;37.60;;
2538;SDS011;1280;49.760;9.664;2023-02-15T18:34:17;69.80;;;33.78;;
2538;SDS011;1280;49.760;9.664;2023-02-15T18:36:50;92.78;;;41.55;;
2538;SDS011;1280;49.760;9.664;2023-02-15T18:39:22;72.22;;;37.45;;
2538;SDS011;1280;49.760;9.664;2023-02-15T18:41:54;72.50;;;36.08;;
2538;SDS011;1280;49.760;9.664;2023-02-15T18:44:23;89.40;;;40.65;;
2538;SDS011;1280;49.760;9.664;2023-02-15T18:46:53;78.20;;;40.05;;
2538;SDS011;1280;49.760;9.664;2023-02-15T18:49:21;78.43;;;35.30;;
2538;SDS011;1280;49.760;9.664;2023-02-15T18:51:50;86.88;;;35.63;;
2538;SDS011;1280;49.760;9.664;2023-02-15T18:54:20;79.90;;;35.92;;
2538;SDS011;1280;49.760;9.664;2023-02-15T18:56:52;94.38;;;38.40;;
2538;SDS011;1280;49.760;9.664;2023-02-15T18:59:22;85.25;;;37.63;;
2538;SDS011;1280;49.760;9.664;2023-02-15T19:01:55;71.13;;;36.90;;
2538;SDS011;1280;49.760;9.664;2023-02-15T19:04:24;74.97;;;33.75;;
2538;SDS011;1280;49.760;9.664;2023-02-15T19:06:53;68.22;;;32.35;;
2538;SDS011;1280;49.760;9.664;2023-02-15T19:09:23;69.63;;;34.90;;
2538;SDS011;1280;49.760;9.664;2023-02-15T19:11:53;73.13;;;35.22;;
2538;SDS011;1280;49.760;9.664;2023-02-15T19:14:24;78.85;;;37.50;;
2538;SDS011;1280;49.760;9.664;2023-02-15T19:16:53;65.68;;;34.53;;
2538;SDS011;1280;49.760;9.664;2023-02-15T19:19:21;77.53;;;39.95;;
2538;SDS011;1280;49.760;9.664;2023-02-15T19:21:50;85.70;;;38.95;;
2538;SDS011;1280;49.760;9.664;2023-02-15T19:24:20;88.50;;;40.05;;
2538;SDS011;1280;49.760;9.664;2023-02-15T19:26:51;81.50;;;37.22;;
2538;SDS011;1280;49.760;9.664;2023-02-15T19:29:23;82.55;;;38.13;;
2538;SDS011;1280;49.760;9.664;2023-02-15T19:31:52;112.60;;;46.50;;
2538;SDS011;1280;49.760;9.664;2023-02-15T19:34:20;78.35;;;36.00;;
2538;SDS011;1280;49.760;9.664;2023-02-15T19:36:49;87.05;;;42.17;;
2538;SDS011;1280;49.760;9.664;2023-02-15T19:39:23;90.70;;;40.88;;
2538;SDS011;1280;49.760;9.664;2023-02-15T19:41:54;87.50;;;38.15;;
2538;SDS011;1280;49.760;9.664;2023-02-15T19:44:23;85.57;;;40.40;;
2538;SDS011;1280;49.760;9.664;2023-02-15T19:46:51;84.40;;;38.15;;
2538;SDS011;1280;49.760;9.664;2023-02-15T19:49:19;80.88;;;38.80;;
2538;SDS011;1280;49.760;9.664;2023-02-15T19:51:49;73.93;;;37.10;;
2538;SDS011;1280;49.760;9.664;2023-02-15T19:54:26;101.65;;;40.65;;
2538;SDS011;1280;49.760;9.664;2023-02-15T19:56:57;100.50;;;43.10;;
2538;SDS011;1280;49.760;9.664;2023-02-15T19:59:26;73.07;;;35.03;;
2538;SDS011;1280;49.760;9.664;2023-02-15T20:01:55;103.45;;;46.40;;
2538;SDS011;1280;49.760;9.664;2023-02-15T20:04:23;78.32;;;41.38;;
2538;SDS011;1280;49.760;9.664;2023-02-15T20:06:53;95.65;;;37.40;;
2538;SDS011;1280;49.760;9.664;2023-02-15T20:09:23;81.50;;;37.25;;
2538;SDS011;1280;49.760;9.664;2023-02-15T20:11:55;86.55;;;35.15;;
2538;SDS011;1280;49.760;9.664;2023-02-15T20:14:23;91.57;;;36.83;;
2538;SDS011;1280;49.760;9.664;2023-02-15T20:16:51;86.43;;;35.63;;
2538;SDS011;1280;49.760;9.664;2023-02-15T20:19:19;120.45;;;36.38;;
2538;SDS011;1280;49.760;9.664;2023-02-15T20:21:47;95.35;;;38.40;;
2538;SDS011;1280;49.760;9.664;2023-02-15T20:24:21;91.18;;;39.78;;
2538;SDS011;1280;49.760;9.664;2023-02-15T20:26:54;120.97;;;35.70;;
2538;SDS011;1280;49.760;9.664;2023-02-15T20:29:21;84.40;;;36.42;;
2538;SDS011;1280;49.760;9.664;2023-02-15T20:31:49;81.22;;;36.83;;
2538;SDS011;1280;49.760;9.664;2023-02-15T20:34:20;61.92;;;31.10;;
2538;SDS011;1280;49.760;9.664;2023-02-15T20:36:48;72.70;;;31.80;;
2538;SDS011;1280;49.760;9.664;2023-02-15T20:39:17;66.25;;;31.58;;
2538;SDS011;1280;49.760;9.664;2023-02-15T20:41:46;60.72;;;32.05;;
2538;SDS011;1280;49.760;9.664;2023-02-15T20:44:19;60.85;;;30.17;;
2538;SDS011;1280;49.760;9.664;2023-02-15T20:46:50;60.10;;;30.83;;
2538;SDS011;1280;49.760;9.664;2023-02-15T20:49:20;53.13;;;26.40;;
2538;SDS011;1280;49.760;9.664;2023-02-15T20:51:50;93.43;;;37.35;;
2538;SDS011;1280;49.760;9.664;2023-02-15T20:54:19;82.18;;;34.25;;
2538;SDS011;1280;49.760;9.664;2023-02-15T20:56:49;68.47;;;30.95;;
2538;SDS011;1280;49.760;9.664;2023-02-15T20:59:20;56.50;;;30.15;;
2538;SDS011;1280;49.760;9.664;2023-02-15T21:01:51;56.72;;;31.50;;
2538;SDS011;1280;49.760;9.664;2023-02-15T21:04:24;58.10;;;31.08;;
2538;SDS011;1280;49.760;9.664;2023-02-15T21:06:55;56.95;;;29.27;;
2538;SDS011;1280;49.760;9.664;2023-02-15T21:09:23;56.67;;;29.23;;
2538;SDS011;1280;49.760;9.664;2023-02-15T21:11:54;77.75;;;29.95;;
2538;SDS011;1280;49.760;9.664;2023-02-15T21:14:25;75.30;;;28.60;;
2538;SDS011;1280;49.760;9.664;2023-02-15T21:16:55;71.78;;;28.45;;
2538;SDS011;1280;49.760;9.664;2023-02-15T21:19:23;81.00;;;30.55;;
2538;SDS011;1280;49.760;9.664;2023-02-15T21:21:51;68.10;;;30.75;;
2538;SDS011;1280;49.760;9.664;2023-02-15T21:24:21;55.97;;;29.35;;
2538;SDS011;1280;49.760;9.664;2023-02-15T21:26:50;50.67;;;26.77;;
2538;SDS011;1280;49.760;9.664;2023-02-15T21:29:19;51.30;;;27.55;;
2538;SDS011;1280;49.760;9.664;2023-02-15T21:31:50;58.13;;;29.15;;
2538;SDS011;1280;49.760;9.664;2023-02-15T21:34:19;92.22;;;30.88;;
2538;SDS011;1280;49.760;9.664;2023-02-15T21:36:47;58.58;;;29.77;;
2538;SDS011;1280;49.760;9.664;2023-02-15T21:39:18;67.10;;;29.55;;
2538;SDS011;1280;49.760;9.664;2023-02-15T21:41:49;71.43;;;29.20;;
2538;SDS011;1280;49.760;9.664;2023-02-15T21:44:36;61.58;;;28.77;;
2538;SDS011;1280;49.760;9.664;2023-02-15T21:47:24;60.70;;;30.38;;
2538;SDS011;1280;49.760;9.664;2023-02-15T21:50:13;101.38;;;29.30;;
2538;SDS011;1280;49.760;9.664;2023-02-15T21:53:00;61.20;;;27.77;;
2538;SDS011;1280;49.760;9.664;2023-02-15T21:55:31;70.35;;;29.67;;
2538;SDS011;1280;49.760;9.664;2023-02-15T21:57:59;77.00;;;30.77;;
2538;SDS011;1280;49.760;9.664;2023-02-15T22:00:28;149.55;;;36.25;;
2538;SDS011;1280;49.760;9.664;2023-02-15T22:02:58;63.03;;;31.63;;
2538;SDS011;1280;49.760;9.664;2023-02-15T22:05:28;78.47;;;31.40;;
2538;SDS011;1280;49.760;9.664;2023-02-15T22:07:59;60.97;;;28.60;;
2538;SDS011;1280;49.760;9.664;2023-02-15T22:10:28;79.32;;;30.20;;
2538;SDS011;1280;49.760;9.664;2023-02-15T22:12:58;72.95;;;30.90;;
2538;SDS011;1280;49.760;9.664;2023-02-15T22:15:29;73.05;;;29.80;;
2538;SDS011;1280;49.760;9.664;2023-02-15T22:18:01;74.88;;;29.77;;
2538;SDS011;1280;49.760;9.664;2023-02-15T22:20:30;83.07;;;30.95;;
2538;SDS011;1280;49.760;9.664;2023-02-15T22:22:58;76.55;;;28.48;;
2538;SDS011;1280;49.760;9.664;2023-02-15T22:25:26;71.20;;;29.17;;
2538;SDS011;1280;49.760;9.664;2023-02-15T22:27:54;84.15;;;30.40;;
2538;SDS011;1280;49.760;9.664;2023-02-15T22:30:23;96.50;;;31.38;;
2538;SDS011;1280;49.760;9.664;2023-02-15T22:32:53;62.00;;;28.08;;
2538;SDS011;1280;49.760;9.664;2023-02-15T22:35:23;63.63;;;29.02;;
2538;SDS011;1280;49.760;9.664;2023-02-15T22:37:54;82.13;;;30.25;;
2538;SDS011;1280;49.760;9.664;2023-02-15T22:40:25;68.78;;;28.98;;
2538;SDS011;1280;49.760;9.664;2023-02-15T22:42:55;87.40;;;30.17;;
2538;SDS011;1280;49.760;9.664;2023-02-15T22:45:25;67.40;;;29.33;;
2538;SDS011;1280;49.760;9.664;2023-02-15T22:47:55;61.78;;;29.88;;
2538;SDS011;1280;49.760;9.664;2023-02-15T22:50:27;51.78;;;27.65;;
2538;SDS011;1280;49.760;9.664;2023-02-15T22:52:58;80.05;;;30.08;;
2538;SDS011;1280;49.760;9.664;2023-02-15T22:55:27;65.40;;;30.77;;
2538;SDS011;1280;49.760;9.664;2023-02-15T22:57:57;62.33;;;29.70;;
2538;SDS011;1280;49.760;9.664;2023-02-15T23:00:26;109.95;;;33.03;;
2538;SDS011;1280;49.760;9.664;2023-02-15T23:02:56;56.28;;;26.80;;
2538;SDS011;1280;49.760;9.664;2023-02-15T23:05:24;46.88;;;26.90;;
2538;SDS011;1280;49.760;9.664;2023-02-15T23:07:56;56.42;;;28.08;;
2538;SDS011;1280;49.760;9.664;2023-02-15T23:10:24;67.40;;;28.58;;
2538;SDS011;1280;49.760;9.664;2023-02-15T23:12:55;52.13;;;28.60;;
2538;SDS011;1280;49.760;9.664;2023-02-15T23:15:43;75.90;;;30.58;;
2538;SDS011;1280;49.760;9.664;2023-02-15T23:18:15;94.47;;;30.25;;
2538;SDS011;1280;49.760;9.664;2023-02-15T23:20:47;62.03;;;29.17;;
2538;SDS011;1280;49.760;9.664;2023-02-15T23:23:16;55.10;;;28.92;;
2538;SDS011;1280;49.760;9.664;2023-02-15T23:25:54;55.83;;;29.20;;
2538;SDS011;1280;49.760;9.664;2023-02-15T23:28:24;49.08;;;27.05;;
2538;SDS011;1280;49.760;9.664;2023-02-15T23:30:54;55.70;;;26.85;;
2538;SDS011;1280;49.760;9.664;2023-02-15T23:33:26;43.08;;;24.40;;
2538;SDS011;1280;49.760;9.664;2023-02-15T23:35:57;58.90;;;25.55;;
2538;SDS011;1280;49.760;9.664;2023-02-15T23:38:26;56.80;;;27.58;;
2538;SDS011;1280;49.760;9.664;2023-02-15T23:40:56;52.45;;;27.27;;
2538;SDS011;1280;49.760;9.664;2023-02-15T23:43:44;54.63;;;26.23;;
2538;SDS011;1280;49.760;9.664;2023-02-15T23:46:22;51.67;;;26.65;;
2538;SDS011;1280;49.760;9.664;2023-02-15T23:48:53;67.28;;;27.65;;
2538;SDS011;1280;49.760;9.664;2023-02-15T23:51:27;72.22;;;31.38;;
2538;SDS011;1280;49.760;9.664;2023-02-15T23:53:57;79.82;;;29.00;;
2538;SDS011;1280;49.760;9.664;2023-02-15T23:56:25;66.38;;;29.73;;
2538;SDS011;1280;49.760;9.664;2023-02-15T23:58:53;80.75;;;32.72;;
